sensor_id;sensor_type;location;lat;lon;timestamp;P1;durP1;ratioP1;P2;durP2;ratioP2
54271;SDS011;40184;53.362;5.216;2022-11-15T00:01:47;24.30;;;20.38;;
54271;SDS011;40184;53.362;5.216;2022-11-15T00:04:12;23.60;;;19.75;;
54271;SDS011;40184;53.362;5.216;2022-11-15T00:06:38;21.27;;;18.92;;
54271;SDS011;40184;53.362;5.216;2022-11-15T00:09:04;22.92;;;19.05;;
54271;SDS011;40184;53.362;5.216;2022-11-15T00:11:29;21.20;;;18.73;;
54271;SDS011;40184;53.362;5.216;2022-11-15T00:13:55;22.65;;;19.13;;
54271;SDS011;40184;53.362;5.216;2022-11-15T00:16:22;21.60;;;18.85;;
54271;SDS011;40184;53.362;5.216;2022-11-15T00:18:48;23.23;;;19.15;;
54271;SDS011;40184;53.362;5.216;2022-11-15T00:21:14;24.95;;;19.83;;
54271;SDS011;40184;53.362;5.216;2022-11-15T00:23:40;24.42;;;19.55;;
54271;SDS011;40184;53.362;5.216;2022-11-15T00:26:06;22.60;;;20.20;;
54271;SDS011;40184;53.362;5.216;2022-11-15T00:28:35;27.63;;;20.80;;
54271;SDS011;40184;53.362;5.216;2022-11-15T00:31:05;23.13;;;19.88;;
54271;SDS011;40184;53.362;5.216;2022-11-15T00:33:33;26.00;;;21.05;;
54271;SDS011;40184;53.362;5.216;2022-11-15T00:36:03;26.80;;;20.98;;
54271;SDS011;40184;53.362;5.216;2022-11-15T00:38:34;26.48;;;20.42;;
54271;SDS011;40184;53.362;5.216;2022-11-15T00:41:01;23.20;;;19.30;;
54271;SDS011;40184;53.362;5.216;2022-11-15T00:43:28;26.58;;;21.52;;
54271;SDS011;40184;53.362;5.216;2022-11-15T00:45:53;25.45;;;20.75;;
54271;SDS011;40184;53.362;5.216;2022-11-15T00:48:19;22.15;;;19.75;;
54271;SDS011;40184;53.362;5.216;2022-11-15T00:50:45;26.40;;;22.30;;
54271;SDS011;40184;53.362;5.216;2022-11-15T00:53:11;27.70;;;20.60;;
54271;SDS011;40184;53.362;5.216;2022-11-15T00:55:36;25.98;;;22.83;;
54271;SDS011;40184;53.362;5.216;2022-11-15T00:58:02;26.85;;;21.13;;
54271;SDS011;40184;53.362;5.216;2022-11-15T01:00:28;30.88;;;21.45;;
54271;SDS011;40184;53.362;5.216;2022-11-15T01:02:53;30.50;;;22.83;;
54271;SDS011;40184;53.362;5.216;2022-11-15T01:05:19;26.77;;;22.75;;
54271;SDS011;40184;53.362;5.216;2022-11-15T01:07:45;31.95;;;23.05;;
54271;SDS011;40184;53.362;5.216;2022-11-15T01:10:11;25.15;;;22.42;;
54271;SDS011;40184;53.362;5.216;2022-11-15T01:12:37;27.08;;;22.35;;
54271;SDS011;40184;53.362;5.216;2022-11-15T01:15:03;30.60;;;23.77;;
54271;SDS011;40184;53.362;5.216;2022-11-15T01:17:30;29.60;;;23.58;;
54271;SDS011;40184;53.362;5.216;2022-11-15T01:19:56;27.55;;;22.42;;
54271;SDS011;40184;53.362;5.216;2022-11-15T01:22:22;28.88;;;23.58;;
54271;SDS011;40184;53.362;5.216;2022-11-15T01:24:49;28.65;;;24.77;;
54271;SDS011;40184;53.362;5.216;2022-11-15T01:27:15;30.67;;;24.30;;
54271;SDS011;40184;53.362;5.216;2022-11-15T01:29:41;33.30;;;24.88;;
54271;SDS011;40184;53.362;5.216;2022-11-15T01:32:07;29.17;;;25.00;;
54271;SDS011;40184;53.362;5.216;2022-11-15T01:34:33;32.70;;;26.92;;
54271;SDS011;40184;53.362;5.216;2022-11-15T01:36:58;31.40;;;27.63;;
54271;SDS011;40184;53.362;5.216;2022-11-15T01:39:24;32.83;;;26.88;;
54271;SDS011;40184;53.362;5.216;2022-11-15T01:41:50;29.50;;;26.25;;
54271;SDS011;40184;53.362;5.216;2022-11-15T01:47:01;36.50;;;28.67;;
54271;SDS011;40184;53.362;5.216;2022-11-15T01:49:31;33.58;;;28.63;;
54271;SDS011;40184;53.362;5.216;2022-11-15T01:51:59;35.85;;;28.55;;
54271;SDS011;40184;53.362;5.216;2022-11-15T01:54:27;34.85;;;29.88;;
54271;SDS011;40184;53.362;5.216;2022-11-15T01:56:54;38.90;;;29.55;;
54271;SDS011;40184;53.362;5.216;2022-11-15T01:59:22;34.40;;;29.05;;
54271;SDS011;40184;53.362;5.216;2022-11-15T02:01:48;40.40;;;29.98;;
54271;SDS011;40184;53.362;5.216;2022-11-15T02:07:16;39.22;;;30.60;;
54271;SDS011;40184;53.362;5.216;2022-11-15T02:09:43;34.33;;;29.67;;
54271;SDS011;40184;53.362;5.216;2022-11-15T02:12:10;37.53;;;30.42;;
54271;SDS011;40184;53.362;5.216;2022-11-15T02:14:39;38.00;;;31.25;;
54271;SDS011;40184;53.362;5.216;2022-11-15T02:17:13;37.10;;;31.52;;
54271;SDS011;40184;53.362;5.216;2022-11-15T02:28:42;41.78;;;32.97;;
54271;SDS011;40184;53.362;5.216;2022-11-15T02:39:06;39.35;;;31.02;;
54271;SDS011;40184;53.362;5.216;2022-11-15T02:41:53;34.37;;;26.97;;
54271;SDS011;40184;53.362;5.216;2022-11-15T02:44:48;32.88;;;27.30;;
54271;SDS011;40184;53.362;5.216;2022-11-15T02:47:14;25.88;;;20.17;;
54271;SDS011;40184;53.362;5.216;2022-11-15T02:49:51;29.38;;;21.58;;
54271;SDS011;40184;53.362;5.216;2022-11-15T02:52:24;26.10;;;21.02;;
54271;SDS011;40184;53.362;5.216;2022-11-15T02:54:54;35.92;;;23.08;;
54271;SDS011;40184;53.362;5.216;2022-11-15T03:10:13;38.95;;;27.17;;
54271;SDS011;40184;53.362;5.216;2022-11-15T03:12:55;42.28;;;30.85;;
54271;SDS011;40184;53.362;5.216;2022-11-15T03:15:31;44.42;;;29.88;;
54271;SDS011;40184;53.362;5.216;2022-11-15T03:18:04;47.85;;;33.80;;
54271;SDS011;40184;53.362;5.216;2022-11-15T03:20:37;49.60;;;34.15;;
54271;SDS011;40184;53.362;5.216;2022-11-15T03:23:04;53.13;;;35.95;;
54271;SDS011;40184;53.362;5.216;2022-11-15T03:25:33;46.17;;;33.65;;
54271;SDS011;40184;53.362;5.216;2022-11-15T03:28:03;46.60;;;33.45;;
54271;SDS011;40184;53.362;5.216;2022-11-15T03:30:32;54.50;;;34.38;;
54271;SDS011;40184;53.362;5.216;2022-11-15T03:32:59;56.67;;;35.50;;
54271;SDS011;40184;53.362;5.216;2022-11-15T03:35:28;56.60;;;36.83;;
54271;SDS011;40184;53.362;5.216;2022-11-15T03:40:42;55.80;;;35.70;;
54271;SDS011;40184;53.362;5.216;2022-11-15T03:43:25;63.58;;;36.20;;
54271;SDS011;40184;53.362;5.216;2022-11-15T03:46:14;51.78;;;33.35;;
54271;SDS011;40184;53.362;5.216;2022-11-15T03:49:13;56.00;;;34.55;;
54271;SDS011;40184;53.362;5.216;2022-11-15T03:51:42;67.95;;;36.90;;
54271;SDS011;40184;53.362;5.216;2022-11-15T03:54:08;62.78;;;36.38;;
54271;SDS011;40184;53.362;5.216;2022-11-15T03:56:33;67.50;;;36.33;;
54271;SDS011;40184;53.362;5.216;2022-11-15T03:58:59;57.25;;;35.30;;
54271;SDS011;40184;53.362;5.216;2022-11-15T04:01:25;57.10;;;34.20;;
54271;SDS011;40184;53.362;5.216;2022-11-15T04:03:50;65.18;;;38.53;;
54271;SDS011;40184;53.362;5.216;2022-11-15T04:06:16;66.85;;;37.05;;
54271;SDS011;40184;53.362;5.216;2022-11-15T04:08:42;68.38;;;37.63;;
54271;SDS011;40184;53.362;5.216;2022-11-15T04:11:07;63.75;;;35.60;;
54271;SDS011;40184;53.362;5.216;2022-11-15T04:13:33;64.47;;;35.10;;
54271;SDS011;40184;53.362;5.216;2022-11-15T04:15:59;66.38;;;35.83;;
54271;SDS011;40184;53.362;5.216;2022-11-15T04:18:24;62.17;;;32.55;;
54271;SDS011;40184;53.362;5.216;2022-11-15T04:20:50;64.78;;;32.67;;
54271;SDS011;40184;53.362;5.216;2022-11-15T04:23:34;67.65;;;35.70;;
54271;SDS011;40184;53.362;5.216;2022-11-15T04:26:19;73.93;;;36.65;;
54271;SDS011;40184;53.362;5.216;2022-11-15T04:28:47;71.40;;;35.08;;
54271;SDS011;40184;53.362;5.216;2022-11-15T04:31:31;73.47;;;36.25;;
54271;SDS011;40184;53.362;5.216;2022-11-15T04:33:57;68.88;;;35.33;;
54271;SDS011;40184;53.362;5.216;2022-11-15T04:36:24;69.03;;;35.88;;
54271;SDS011;40184;53.362;5.216;2022-11-15T04:39:08;91.97;;;38.13;;
54271;SDS011;40184;53.362;5.216;2022-11-15T04:41:34;85.43;;;38.47;;
54271;SDS011;40184;53.362;5.216;2022-11-15T04:43:59;107.38;;;44.85;;
54271;SDS011;40184;53.362;5.216;2022-11-15T04:46:25;95.88;;;42.90;;
54271;SDS011;40184;53.362;5.216;2022-11-15T04:48:52;101.68;;;42.33;;
54271;SDS011;40184;53.362;5.216;2022-11-15T04:51:18;100.22;;;42.88;;
54271;SDS011;40184;53.362;5.216;2022-11-15T04:53:44;96.00;;;43.00;;
54271;SDS011;40184;53.362;5.216;2022-11-15T04:56:10;95.35;;;43.08;;
54271;SDS011;40184;53.362;5.216;2022-11-15T04:58:36;89.60;;;40.97;;
54271;SDS011;40184;53.362;5.216;2022-11-15T05:01:08;90.28;;;42.45;;
54271;SDS011;40184;53.362;5.216;2022-11-15T05:03:35;92.35;;;43.10;;
54271;SDS011;40184;53.362;5.216;2022-11-15T05:06:20;92.05;;;43.72;;
54271;SDS011;40184;53.362;5.216;2022-11-15T05:08:45;96.68;;;43.53;;
54271;SDS011;40184;53.362;5.216;2022-11-15T05:11:11;97.68;;;44.90;;
54271;SDS011;40184;53.362;5.216;2022-11-15T05:13:37;100.75;;;45.00;;
54271;SDS011;40184;53.362;5.216;2022-11-15T05:16:02;95.78;;;43.80;;
54271;SDS011;40184;53.362;5.216;2022-11-15T05:18:28;96.53;;;42.50;;
54271;SDS011;40184;53.362;5.216;2022-11-15T05:20:54;103.93;;;44.47;;
54271;SDS011;40184;53.362;5.216;2022-11-15T05:23:19;98.28;;;46.08;;
54271;SDS011;40184;53.362;5.216;2022-11-15T05:25:45;97.28;;;41.80;;
54271;SDS011;40184;53.362;5.216;2022-11-15T05:28:11;102.25;;;44.50;;
54271;SDS011;40184;53.362;5.216;2022-11-15T05:30:36;100.18;;;44.50;;
54271;SDS011;40184;53.362;5.216;2022-11-15T05:33:02;113.57;;;46.28;;
54271;SDS011;40184;53.362;5.216;2022-11-15T05:35:33;109.32;;;45.33;;
54271;SDS011;40184;53.362;5.216;2022-11-15T05:38:03;136.93;;;50.15;;
54271;SDS011;40184;53.362;5.216;2022-11-15T05:40:29;118.57;;;46.90;;
54271;SDS011;40184;53.362;5.216;2022-11-15T05:42:56;122.35;;;47.38;;
54271;SDS011;40184;53.362;5.216;2022-11-15T05:45:22;128.23;;;49.00;;
54271;SDS011;40184;53.362;5.216;2022-11-15T05:47:48;138.80;;;50.70;;
54271;SDS011;40184;53.362;5.216;2022-11-15T05:50:15;127.45;;;50.50;;
54271;SDS011;40184;53.362;5.216;2022-11-15T05:52:43;157.68;;;55.55;;
54271;SDS011;40184;53.362;5.216;2022-11-15T05:55:10;137.05;;;49.75;;
54271;SDS011;40184;53.362;5.216;2022-11-15T05:57:36;149.38;;;52.95;;
54271;SDS011;40184;53.362;5.216;2022-11-15T06:00:03;149.35;;;51.53;;
54271;SDS011;40184;53.362;5.216;2022-11-15T06:02:29;152.57;;;55.33;;
54271;SDS011;40184;53.362;5.216;2022-11-15T06:04:54;148.38;;;54.00;;
54271;SDS011;40184;53.362;5.216;2022-11-15T06:07:20;159.45;;;56.95;;
54271;SDS011;40184;53.362;5.216;2022-11-15T06:09:46;139.20;;;51.20;;
54271;SDS011;40184;53.362;5.216;2022-11-15T06:12:12;147.35;;;53.13;;
54271;SDS011;40184;53.362;5.216;2022-11-15T06:14:38;138.77;;;54.17;;
54271;SDS011;40184;53.362;5.216;2022-11-15T06:17:03;151.45;;;55.10;;
54271;SDS011;40184;53.362;5.216;2022-11-15T06:19:29;134.18;;;54.75;;
54271;SDS011;40184;53.362;5.216;2022-11-15T06:21:58;143.27;;;56.05;;
54271;SDS011;40184;53.362;5.216;2022-11-15T06:24:24;135.55;;;56.58;;
54271;SDS011;40184;53.362;5.216;2022-11-15T06:26:50;126.47;;;53.58;;
54271;SDS011;40184;53.362;5.216;2022-11-15T06:29:16;129.43;;;55.75;;
54271;SDS011;40184;53.362;5.216;2022-11-15T06:31:41;133.27;;;57.92;;
54271;SDS011;40184;53.362;5.216;2022-11-15T06:34:07;125.95;;;55.88;;
54271;SDS011;40184;53.362;5.216;2022-11-15T06:36:34;145.52;;;57.47;;
54271;SDS011;40184;53.362;5.216;2022-11-15T06:39:00;139.07;;;58.75;;
54271;SDS011;40184;53.362;5.216;2022-11-15T06:41:25;158.20;;;61.28;;
54271;SDS011;40184;53.362;5.216;2022-11-15T06:43:51;133.88;;;57.70;;
54271;SDS011;40184;53.362;5.216;2022-11-15T06:46:17;149.48;;;60.10;;
54271;SDS011;40184;53.362;5.216;2022-11-15T06:48:42;145.25;;;60.03;;
54271;SDS011;40184;53.362;5.216;2022-11-15T06:51:08;125.85;;;60.05;;
54271;SDS011;40184;53.362;5.216;2022-11-15T06:53:33;136.63;;;61.20;;
54271;SDS011;40184;53.362;5.216;2022-11-15T06:56:00;140.38;;;61.55;;
54271;SDS011;40184;53.362;5.216;2022-11-15T06:58:26;134.20;;;60.28;;
54271;SDS011;40184;53.362;5.216;2022-11-15T07:00:52;123.85;;;59.67;;
54271;SDS011;40184;53.362;5.216;2022-11-15T07:03:18;127.20;;;59.05;;
54271;SDS011;40184;53.362;5.216;2022-11-15T07:05:53;133.80;;;61.58;;
54271;SDS011;40184;53.362;5.216;2022-11-15T07:08:19;133.65;;;59.30;;
54271;SDS011;40184;53.362;5.216;2022-11-15T07:10:46;133.52;;;58.53;;
54271;SDS011;40184;53.362;5.216;2022-11-15T07:13:11;124.32;;;58.15;;
54271;SDS011;40184;53.362;5.216;2022-11-15T07:15:37;123.50;;;55.83;;
54271;SDS011;40184;53.362;5.216;2022-11-15T07:18:02;122.80;;;57.42;;
54271;SDS011;40184;53.362;5.216;2022-11-15T07:20:29;130.00;;;58.88;;
54271;SDS011;40184;53.362;5.216;2022-11-15T07:23:04;113.32;;;55.00;;
54271;SDS011;40184;53.362;5.216;2022-11-15T07:25:30;119.25;;;56.83;;
54271;SDS011;40184;53.362;5.216;2022-11-15T07:27:56;107.60;;;53.42;;
54271;SDS011;40184;53.362;5.216;2022-11-15T07:30:23;110.45;;;55.05;;
54271;SDS011;40184;53.362;5.216;2022-11-15T07:32:54;97.90;;;51.85;;
54271;SDS011;40184;53.362;5.216;2022-11-15T07:35:20;91.78;;;52.95;;
54271;SDS011;40184;53.362;5.216;2022-11-15T07:37:59;103.50;;;51.47;;
54271;SDS011;40184;53.362;5.216;2022-11-15T07:40:27;96.07;;;52.28;;
54271;SDS011;40184;53.362;5.216;2022-11-15T07:43:01;95.70;;;51.42;;
54271;SDS011;40184;53.362;5.216;2022-11-15T07:45:29;95.45;;;54.25;;
54271;SDS011;40184;53.362;5.216;2022-11-15T07:47:55;106.93;;;55.35;;
54271;SDS011;40184;53.362;5.216;2022-11-15T07:50:22;105.20;;;54.63;;
54271;SDS011;40184;53.362;5.216;2022-11-15T07:52:53;91.97;;;49.92;;
54271;SDS011;40184;53.362;5.216;2022-11-15T07:55:20;98.40;;;50.47;;
54271;SDS011;40184;53.362;5.216;2022-11-15T07:57:46;91.18;;;50.65;;
54271;SDS011;40184;53.362;5.216;2022-11-15T08:00:12;81.85;;;47.90;;
54271;SDS011;40184;53.362;5.216;2022-11-15T08:02:38;91.03;;;52.35;;
54271;SDS011;40184;53.362;5.216;2022-11-15T08:05:04;78.93;;;47.17;;
54271;SDS011;40184;53.362;5.216;2022-11-15T08:07:30;86.45;;;49.38;;
54271;SDS011;40184;53.362;5.216;2022-11-15T08:09:57;92.55;;;50.47;;
54271;SDS011;40184;53.362;5.216;2022-11-15T08:12:23;77.28;;;47.28;;
54271;SDS011;40184;53.362;5.216;2022-11-15T08:14:49;80.70;;;45.85;;
54271;SDS011;40184;53.362;5.216;2022-11-15T08:17:15;77.63;;;46.22;;
54271;SDS011;40184;53.362;5.216;2022-11-15T08:19:40;70.40;;;44.38;;
54271;SDS011;40184;53.362;5.216;2022-11-15T08:22:07;73.65;;;45.40;;
54271;SDS011;40184;53.362;5.216;2022-11-15T08:24:32;74.30;;;43.63;;
54271;SDS011;40184;53.362;5.216;2022-11-15T08:26:59;75.82;;;43.33;;
54271;SDS011;40184;53.362;5.216;2022-11-15T08:29:24;71.63;;;43.60;;
54271;SDS011;40184;53.362;5.216;2022-11-15T08:31:50;69.03;;;41.30;;
54271;SDS011;40184;53.362;5.216;2022-11-15T08:34:16;64.28;;;39.42;;
54271;SDS011;40184;53.362;5.216;2022-11-15T08:36:41;72.25;;;41.90;;
54271;SDS011;40184;53.362;5.216;2022-11-15T08:39:09;74.70;;;42.80;;
54271;SDS011;40184;53.362;5.216;2022-11-15T08:41:37;65.30;;;38.38;;
54271;SDS011;40184;53.362;5.216;2022-11-15T08:44:03;65.22;;;38.65;;
54271;SDS011;40184;53.362;5.216;2022-11-15T08:46:29;55.45;;;38.17;;
54271;SDS011;40184;53.362;5.216;2022-11-15T08:48:54;68.60;;;39.08;;
54271;SDS011;40184;53.362;5.216;2022-11-15T08:51:20;60.88;;;36.65;;
54271;SDS011;40184;53.362;5.216;2022-11-15T08:53:46;60.60;;;38.63;;
54271;SDS011;40184;53.362;5.216;2022-11-15T08:56:12;58.80;;;37.67;;
54271;SDS011;40184;53.362;5.216;2022-11-15T08:58:40;62.53;;;38.40;;
54271;SDS011;40184;53.362;5.216;2022-11-15T09:01:13;61.17;;;36.17;;
54271;SDS011;40184;53.362;5.216;2022-11-15T09:03:41;59.35;;;37.97;;
54271;SDS011;40184;53.362;5.216;2022-11-15T09:06:07;58.30;;;34.70;;
54271;SDS011;40184;53.362;5.216;2022-11-15T09:08:32;50.30;;;32.45;;
54271;SDS011;40184;53.362;5.216;2022-11-15T09:11:02;46.28;;;32.78;;
54271;SDS011;40184;53.362;5.216;2022-11-15T09:13:28;49.20;;;32.22;;
54271;SDS011;40184;53.362;5.216;2022-11-15T09:15:59;44.13;;;30.63;;
54271;SDS011;40184;53.362;5.216;2022-11-15T09:18:25;49.60;;;31.42;;
54271;SDS011;40184;53.362;5.216;2022-11-15T09:20:54;46.08;;;30.77;;
54271;SDS011;40184;53.362;5.216;2022-11-15T09:23:24;39.70;;;30.08;;
54271;SDS011;40184;53.362;5.216;2022-11-15T09:25:51;40.03;;;26.13;;
54271;SDS011;40184;53.362;5.216;2022-11-15T09:28:18;34.58;;;28.58;;
54271;SDS011;40184;53.362;5.216;2022-11-15T09:30:43;39.90;;;25.52;;
54271;SDS011;40184;53.362;5.216;2022-11-15T09:33:10;38.58;;;25.98;;
54271;SDS011;40184;53.362;5.216;2022-11-15T09:35:37;39.25;;;25.58;;
54271;SDS011;40184;53.362;5.216;2022-11-15T09:38:03;36.65;;;26.23;;
54271;SDS011;40184;53.362;5.216;2022-11-15T09:40:30;36.10;;;24.80;;
54271;SDS011;40184;53.362;5.216;2022-11-15T09:43:05;31.60;;;23.45;;
54271;SDS011;40184;53.362;5.216;2022-11-15T09:50:56;39.42;;;24.05;;
54271;SDS011;40184;53.362;5.216;2022-11-15T09:53:25;34.20;;;22.67;;
54271;SDS011;40184;53.362;5.216;2022-11-15T10:04:35;28.92;;;18.05;;
54271;SDS011;40184;53.362;5.216;2022-11-15T10:10:02;23.00;;;18.38;;
54271;SDS011;40184;53.362;5.216;2022-11-15T10:12:50;24.98;;;20.65;;
54271;SDS011;40184;53.362;5.216;2022-11-15T10:15:18;29.83;;;19.25;;
54271;SDS011;40184;53.362;5.216;2022-11-15T10:20:26;26.10;;;19.17;;
54271;SDS011;40184;53.362;5.216;2022-11-15T10:25:23;29.33;;;18.30;;
54271;SDS011;40184;53.362;5.216;2022-11-15T10:28:01;32.22;;;17.08;;
54271;SDS011;40184;53.362;5.216;2022-11-15T10:30:46;36.90;;;18.30;;
54271;SDS011;40184;53.362;5.216;2022-11-15T10:35:42;27.80;;;19.35;;
54271;SDS011;40184;53.362;5.216;2022-11-15T10:38:09;27.13;;;20.38;;
54271;SDS011;40184;53.362;5.216;2022-11-15T10:40:36;26.80;;;20.20;;
54271;SDS011;40184;53.362;5.216;2022-11-15T10:43:06;29.77;;;20.35;;
54271;SDS011;40184;53.362;5.216;2022-11-15T10:45:36;27.27;;;19.30;;
54271;SDS011;40184;53.362;5.216;2022-11-15T10:50:38;25.30;;;17.90;;
54271;SDS011;40184;53.362;5.216;2022-11-15T10:53:15;22.70;;;18.13;;
54271;SDS011;40184;53.362;5.216;2022-11-15T10:55:52;25.50;;;17.95;;
54271;SDS011;40184;53.362;5.216;2022-11-15T10:58:21;28.45;;;19.13;;
54271;SDS011;40184;53.362;5.216;2022-11-15T11:00:47;27.60;;;18.20;;
54271;SDS011;40184;53.362;5.216;2022-11-15T11:03:34;27.77;;;16.70;;
54271;SDS011;40184;53.362;5.216;2022-11-15T11:06:45;24.45;;;16.17;;
54271;SDS011;40184;53.362;5.216;2022-11-15T11:08:56;27.30;;;17.35;;
54271;SDS011;40184;53.362;5.216;2022-11-15T11:11:24;25.75;;;15.80;;
54271;SDS011;40184;53.362;5.216;2022-11-15T11:13:50;26.88;;;16.15;;
54271;SDS011;40184;53.362;5.216;2022-11-15T11:16:23;26.50;;;16.27;;
54271;SDS011;40184;53.362;5.216;2022-11-15T11:35:14;20.00;;;11.10;;
54271;SDS011;40184;53.362;5.216;2022-11-15T11:37:45;20.25;;;11.63;;
54271;SDS011;40184;53.362;5.216;2022-11-15T11:40:24;15.00;;;10.05;;
54271;SDS011;40184;53.362;5.216;2022-11-15T11:51:34;21.80;;;10.15;;
54271;SDS011;40184;53.362;5.216;2022-11-15T11:54:25;17.35;;;10.20;;
54271;SDS011;40184;53.362;5.216;2022-11-15T11:57:05;17.27;;;10.60;;
54271;SDS011;40184;53.362;5.216;2022-11-15T11:59:47;19.02;;;11.93;;
54271;SDS011;40184;53.362;5.216;2022-11-15T12:05:01;22.42;;;10.70;;
54271;SDS011;40184;53.362;5.216;2022-11-15T12:08:01;23.60;;;10.68;;
54271;SDS011;40184;53.362;5.216;2022-11-15T12:10:36;20.50;;;10.82;;
54271;SDS011;40184;53.362;5.216;2022-11-15T12:13:14;28.55;;;10.68;;
54271;SDS011;40184;53.362;5.216;2022-11-15T12:18:19;22.02;;;11.00;;
54271;SDS011;40184;53.362;5.216;2022-11-15T12:21:05;20.70;;;10.27;;
54271;SDS011;40184;53.362;5.216;2022-11-15T12:23:47;16.85;;;10.77;;
54271;SDS011;40184;53.362;5.216;2022-11-15T12:26:21;15.98;;;9.60;;
54271;SDS011;40184;53.362;5.216;2022-11-15T12:28:52;19.40;;;9.05;;
54271;SDS011;40184;53.362;5.216;2022-11-15T12:34:00;15.07;;;9.27;;
54271;SDS011;40184;53.362;5.216;2022-11-15T12:36:36;17.83;;;8.80;;
54271;SDS011;40184;53.362;5.216;2022-11-15T12:41:32;13.07;;;7.20;;
54271;SDS011;40184;53.362;5.216;2022-11-15T12:43:59;14.20;;;7.15;;
54271;SDS011;40184;53.362;5.216;2022-11-15T12:48:54;12.60;;;6.95;;
54271;SDS011;40184;53.362;5.216;2022-11-15T13:17:37;10.93;;;5.30;;
54271;SDS011;40184;53.362;5.216;2022-11-15T13:30:52;9.32;;;4.00;;
54271;SDS011;40184;53.362;5.216;2022-11-15T13:33:23;7.80;;;4.28;;
54271;SDS011;40184;53.362;5.216;2022-11-15T13:36:05;14.45;;;4.60;;
54271;SDS011;40184;53.362;5.216;2022-11-15T13:38:35;10.20;;;4.30;;
54271;SDS011;40184;53.362;5.216;2022-11-15T13:41:16;15.07;;;4.85;;
54271;SDS011;40184;53.362;5.216;2022-11-15T13:43:42;8.93;;;5.00;;
54271;SDS011;40184;53.362;5.216;2022-11-15T13:46:19;12.23;;;5.32;;
54271;SDS011;40184;53.362;5.216;2022-11-15T13:48:45;10.45;;;5.75;;
54271;SDS011;40184;53.362;5.216;2022-11-15T13:54:23;13.45;;;6.25;;
54271;SDS011;40184;53.362;5.216;2022-11-15T13:57:00;9.63;;;6.63;;
54271;SDS011;40184;53.362;5.216;2022-11-15T13:59:44;10.02;;;6.63;;
54271;SDS011;40184;53.362;5.216;2022-11-15T14:02:13;13.30;;;6.18;;
54271;SDS011;40184;53.362;5.216;2022-11-15T14:04:55;13.57;;;5.85;;
54271;SDS011;40184;53.362;5.216;2022-11-15T14:07:24;14.40;;;6.07;;
54271;SDS011;40184;53.362;5.216;2022-11-15T14:09:52;11.77;;;5.80;;
54271;SDS011;40184;53.362;5.216;2022-11-15T14:14:47;10.55;;;5.00;;
54271;SDS011;40184;53.362;5.216;2022-11-15T14:17:46;9.73;;;4.22;;
54271;SDS011;40184;53.362;5.216;2022-11-15T14:22:57;12.88;;;3.78;;
54271;SDS011;40184;53.362;5.216;2022-11-15T14:25:29;8.35;;;4.00;;
54271;SDS011;40184;53.362;5.216;2022-11-15T14:30:41;7.63;;;4.20;;
54271;SDS011;40184;53.362;5.216;2022-11-15T14:33:17;12.65;;;5.28;;
54271;SDS011;40184;53.362;5.216;2022-11-15T14:35:49;7.90;;;4.03;;
54271;SDS011;40184;53.362;5.216;2022-11-15T14:38:19;8.27;;;3.88;;
54271;SDS011;40184;53.362;5.216;2022-11-15T14:40:45;9.38;;;4.20;;
54271;SDS011;40184;53.362;5.216;2022-11-15T14:43:11;6.32;;;3.95;;
54271;SDS011;40184;53.362;5.216;2022-11-15T14:45:37;8.35;;;3.72;;
54271;SDS011;40184;53.362;5.216;2022-11-15T14:48:04;8.75;;;4.15;;
54271;SDS011;40184;53.362;5.216;2022-11-15T14:50:29;6.90;;;3.70;;
54271;SDS011;40184;53.362;5.216;2022-11-15T14:52:58;13.80;;;5.70;;
54271;SDS011;40184;53.362;5.216;2022-11-15T14:55:25;8.40;;;3.90;;
54271;SDS011;40184;53.362;5.216;2022-11-15T14:57:53;20.50;;;4.68;;
54271;SDS011;40184;53.362;5.216;2022-11-15T15:00:20;6.70;;;3.03;;
54271;SDS011;40184;53.362;5.216;2022-11-15T15:02:46;9.13;;;4.13;;
54271;SDS011;40184;53.362;5.216;2022-11-15T15:05:17;5.97;;;3.90;;
54271;SDS011;40184;53.362;5.216;2022-11-15T15:07:48;8.70;;;3.97;;
54271;SDS011;40184;53.362;5.216;2022-11-15T15:10:15;11.13;;;3.80;;
54271;SDS011;40184;53.362;5.216;2022-11-15T15:12:41;8.05;;;3.85;;
54271;SDS011;40184;53.362;5.216;2022-11-15T15:15:14;9.40;;;5.72;;
54271;SDS011;40184;53.362;5.216;2022-11-15T15:17:41;11.10;;;4.18;;
54271;SDS011;40184;53.362;5.216;2022-11-15T15:20:08;9.48;;;6.75;;
54271;SDS011;40184;53.362;5.216;2022-11-15T15:22:34;18.92;;;8.00;;
54271;SDS011;40184;53.362;5.216;2022-11-15T15:25:00;14.07;;;5.82;;
54271;SDS011;40184;53.362;5.216;2022-11-15T15:27:27;25.08;;;10.30;;
54271;SDS011;40184;53.362;5.216;2022-11-15T15:29:53;13.48;;;4.97;;
54271;SDS011;40184;53.362;5.216;2022-11-15T15:32:18;12.40;;;4.93;;
54271;SDS011;40184;53.362;5.216;2022-11-15T15:34:44;15.35;;;7.93;;
54271;SDS011;40184;53.362;5.216;2022-11-15T15:39:44;8.57;;;4.53;;
54271;SDS011;40184;53.362;5.216;2022-11-15T15:42:10;8.60;;;3.42;;
54271;SDS011;40184;53.362;5.216;2022-11-15T15:44:35;14.32;;;6.55;;
54271;SDS011;40184;53.362;5.216;2022-11-15T15:47:01;18.88;;;6.10;;
54271;SDS011;40184;53.362;5.216;2022-11-15T15:49:27;21.85;;;9.00;;
54271;SDS011;40184;53.362;5.216;2022-11-15T15:51:52;14.07;;;4.15;;
54271;SDS011;40184;53.362;5.216;2022-11-15T15:54:18;13.35;;;6.50;;
54271;SDS011;40184;53.362;5.216;2022-11-15T15:56:44;18.52;;;8.60;;
54271;SDS011;40184;53.362;5.216;2022-11-15T15:59:09;30.67;;;12.15;;
54271;SDS011;40184;53.362;5.216;2022-11-15T16:01:35;23.42;;;8.35;;
54271;SDS011;40184;53.362;5.216;2022-11-15T16:04:00;18.63;;;6.82;;
54271;SDS011;40184;53.362;5.216;2022-11-15T16:08:58;18.10;;;7.20;;
54271;SDS011;40184;53.362;5.216;2022-11-15T16:11:23;16.83;;;6.55;;
54271;SDS011;40184;53.362;5.216;2022-11-15T16:13:49;17.70;;;5.57;;
54271;SDS011;40184;53.362;5.216;2022-11-15T16:16:21;15.27;;;5.78;;
54271;SDS011;40184;53.362;5.216;2022-11-15T16:18:47;23.23;;;9.48;;
54271;SDS011;40184;53.362;5.216;2022-11-15T16:21:13;7.25;;;3.75;;
54271;SDS011;40184;53.362;5.216;2022-11-15T16:23:38;11.60;;;3.67;;
54271;SDS011;40184;53.362;5.216;2022-11-15T16:26:10;14.02;;;3.92;;
54271;SDS011;40184;53.362;5.216;2022-11-15T16:28:44;12.52;;;5.47;;
54271;SDS011;40184;53.362;5.216;2022-11-15T16:31:10;5.30;;;2.60;;
54271;SDS011;40184;53.362;5.216;2022-11-15T16:33:37;9.77;;;3.25;;
54271;SDS011;40184;53.362;5.216;2022-11-15T16:36:04;7.60;;;3.35;;
54271;SDS011;40184;53.362;5.216;2022-11-15T16:38:31;9.45;;;4.97;;
54271;SDS011;40184;53.362;5.216;2022-11-15T16:40:57;9.10;;;3.42;;
54271;SDS011;40184;53.362;5.216;2022-11-15T16:43:23;7.05;;;3.92;;
54271;SDS011;40184;53.362;5.216;2022-11-15T16:45:49;12.88;;;5.57;;
54271;SDS011;40184;53.362;5.216;2022-11-15T16:48:20;9.25;;;3.50;;
54271;SDS011;40184;53.362;5.216;2022-11-15T16:50:49;8.80;;;5.13;;
54271;SDS011;40184;53.362;5.216;2022-11-15T16:53:15;7.10;;;3.97;;
54271;SDS011;40184;53.362;5.216;2022-11-15T16:55:40;8.02;;;4.00;;
54271;SDS011;40184;53.362;5.216;2022-11-15T16:58:07;11.02;;;4.10;;
54271;SDS011;40184;53.362;5.216;2022-11-15T17:00:33;7.15;;;3.15;;
54271;SDS011;40184;53.362;5.216;2022-11-15T17:02:59;6.50;;;3.13;;
54271;SDS011;40184;53.362;5.216;2022-11-15T17:05:25;9.38;;;3.33;;
54271;SDS011;40184;53.362;5.216;2022-11-15T17:07:53;6.32;;;2.97;;
54271;SDS011;40184;53.362;5.216;2022-11-15T17:10:23;5.18;;;2.67;;